Terminal Aerodrome Forecast
Issued by NWS Missoula, MT

Home | Current Version | Previous Version | Text Only | Print | Product List | Glossary On
Versions: 1 2 3 4 5 6 7 8 9 10 11 12 13 14 15 16 17 18 19
000
FTUS45 KMSO 221453 AAC
TAFMSO
TAF AMD
KMSO 221453Z 2215/2312 00000KT 2SM BR SCT002
      TEMPO 2215/2216 1/4SM FG VV002
     FM221600 VRB04KT P6SM FEW002 SCT080=

USA.gov is the U.S. government's official web portal to all federal, state and local government web resources and services.